sensor_id;sensor_type;location;lat;lon;timestamp;pressure;altitude;pressure_sealevel;temperature;humidity
50093;BME280;35974;47.752;10.290;2023-07-08T00:01:07;94099.78;;;16.56;80.96
50093;BME280;35974;47.752;10.290;2023-07-08T00:03:34;94099.34;;;16.47;81.13
50093;BME280;35974;47.752;10.290;2023-07-08T00:06:04;94096.00;;;16.52;81.23
50093;BME280;35974;47.752;10.290;2023-07-08T00:08:30;94094.28;;;16.57;80.52
50093;BME280;35974;47.752;10.290;2023-07-08T00:10:57;94089.09;;;16.51;82.07
50093;BME280;35974;47.752;10.290;2023-07-08T00:13:24;94083.06;;;16.38;86.38
50093;BME280;35974;47.752;10.290;2023-07-08T00:15:50;94079.28;;;16.34;88.89
50093;BME280;35974;47.752;10.290;2023-07-08T00:18:17;94077.94;;;16.20;91.67
50093;BME280;35974;47.752;10.290;2023-07-08T00:20:45;94079.47;;;16.04;94.34
50093;BME280;35974;47.752;10.290;2023-07-08T00:23:12;94082.34;;;16.02;95.08
50093;BME280;35974;47.752;10.290;2023-07-08T00:25:43;94088.53;;;15.96;96.39
50093;BME280;35974;47.752;10.290;2023-07-08T00:28:10;94082.59;;;15.89;96.90
50093;BME280;35974;47.752;10.290;2023-07-08T00:30:37;94085.09;;;15.84;99.99
50093;BME280;35974;47.752;10.290;2023-07-08T00:33:10;94084.88;;;15.73;100.00
50093;BME280;35974;47.752;10.290;2023-07-08T00:35:37;94081.78;;;15.65;100.00
50093;BME280;35974;47.752;10.290;2023-07-08T00:38:25;94083.13;;;15.67;100.00
50093;BME280;35974;47.752;10.290;2023-07-08T00:41:01;94080.97;;;15.64;100.00
50093;BME280;35974;47.752;10.290;2023-07-08T00:43:36;94090.84;;;15.81;99.40
50093;BME280;35974;47.752;10.290;2023-07-08T00:48:50;94092.22;;;15.95;96.70
50093;BME280;35974;47.752;10.290;2023-07-08T00:51:18;94090.16;;;15.97;96.36
50093;BME280;35974;47.752;10.290;2023-07-08T00:53:45;94087.38;;;15.92;97.78
50093;BME280;35974;47.752;10.290;2023-07-08T00:56:14;94093.63;;;15.86;100.00
50093;BME280;35974;47.752;10.290;2023-07-08T00:58:46;94090.13;;;15.73;100.00
50093;BME280;35974;47.752;10.290;2023-07-08T01:01:14;94086.69;;;15.61;100.00
50093;BME280;35974;47.752;10.290;2023-07-08T01:03:46;94097.72;;;15.58;100.00
50093;BME280;35974;47.752;10.290;2023-07-08T01:06:16;94100.22;;;15.53;100.00
50093;BME280;35974;47.752;10.290;2023-07-08T01:08:42;94095.66;;;15.60;100.00
50093;BME280;35974;47.752;10.290;2023-07-08T01:11:09;94098.53;;;15.59;100.00
50093;BME280;35974;47.752;10.290;2023-07-08T01:13:37;94094.84;;;15.71;100.00
50093;BME280;35974;47.752;10.290;2023-07-08T01:16:06;94094.75;;;15.66;100.00
50093;BME280;35974;47.752;10.290;2023-07-08T01:18:33;94086.22;;;15.64;100.00
50093;BME280;35974;47.752;10.290;2023-07-08T01:21:02;94087.06;;;15.65;100.00
50093;BME280;35974;47.752;10.290;2023-07-08T01:23:33;94082.13;;;15.68;100.00
50093;BME280;35974;47.752;10.290;2023-07-08T01:26:00;94080.03;;;15.70;100.00
50093;BME280;35974;47.752;10.290;2023-07-08T01:28:27;94080.03;;;15.70;100.00
50093;BME280;35974;47.752;10.290;2023-07-08T01:30:54;94074.31;;;15.73;100.00
50093;BME280;35974;47.752;10.290;2023-07-08T01:33:21;94077.97;;;15.72;100.00
50093;BME280;35974;47.752;10.290;2023-07-08T01:35:51;94074.88;;;15.75;100.00
50093;BME280;35974;47.752;10.290;2023-07-08T01:38:19;94081.44;;;15.73;100.00
50093;BME280;35974;47.752;10.290;2023-07-08T01:40:48;94076.84;;;15.68;100.00
50093;BME280;35974;47.752;10.290;2023-07-08T01:43:15;94072.25;;;15.75;100.00
50093;BME280;35974;47.752;10.290;2023-07-08T01:45:41;94075.50;;;15.78;100.00
50093;BME280;35974;47.752;10.290;2023-07-08T01:48:10;94072.25;;;15.75;100.00
50093;BME280;35974;47.752;10.290;2023-07-08T01:51:20;94075.69;;;15.64;100.00
50093;BME280;35974;47.752;10.290;2023-07-08T01:53:28;94077.75;;;15.62;100.00
50093;BME280;35974;47.752;10.290;2023-07-08T01:55:55;94077.19;;;15.60;100.00
50093;BME280;35974;47.752;10.290;2023-07-08T01:58:22;94065.94;;;15.53;100.00
50093;BME280;35974;47.752;10.290;2023-07-08T02:00:48;94070.97;;;15.54;100.00
50093;BME280;35974;47.752;10.290;2023-07-08T02:03:15;94072.38;;;15.45;100.00
50093;BME280;35974;47.752;10.290;2023-07-08T02:05:41;94072.25;;;15.52;100.00
50093;BME280;35974;47.752;10.290;2023-07-08T02:08:08;94074.91;;;15.52;100.00
50093;BME280;35974;47.752;10.290;2023-07-08T02:10:36;94071.56;;;15.45;100.00
50093;BME280;35974;47.752;10.290;2023-07-08T02:13:03;94078.00;;;15.49;100.00
50093;BME280;35974;47.752;10.290;2023-07-08T02:15:29;94070.88;;;15.49;100.00
50093;BME280;35974;47.752;10.290;2023-07-08T02:17:56;94069.28;;;15.60;100.00
50093;BME280;35974;47.752;10.290;2023-07-08T02:20:22;94070.41;;;15.64;100.00
50093;BME280;35974;47.752;10.290;2023-07-08T02:22:49;94074.31;;;15.73;100.00
50093;BME280;35974;47.752;10.290;2023-07-08T02:25:15;94076.16;;;15.85;100.00
50093;BME280;35974;47.752;10.290;2023-07-08T02:27:42;94075.84;;;15.81;100.00
50093;BME280;35974;47.752;10.290;2023-07-08T02:30:08;94081.00;;;15.88;100.00
50093;BME280;35974;47.752;10.290;2023-07-08T02:32:35;94088.66;;;16.01;100.00
50093;BME280;35974;47.752;10.290;2023-07-08T02:35:05;94100.22;;;16.00;100.00
50093;BME280;35974;47.752;10.290;2023-07-08T02:37:32;94107.34;;;16.00;100.00
50093;BME280;35974;47.752;10.290;2023-07-08T02:39:58;94106.66;;;16.04;100.00
50093;BME280;35974;47.752;10.290;2023-07-08T02:42:25;94110.31;;;16.03;100.00
50093;BME280;35974;47.752;10.290;2023-07-08T02:44:51;94109.88;;;16.06;100.00
50093;BME280;35974;47.752;10.290;2023-07-08T02:47:18;94117.69;;;16.01;100.00
50093;BME280;35974;47.752;10.290;2023-07-08T02:49:44;94119.31;;;16.02;100.00
50093;BME280;35974;47.752;10.290;2023-07-08T02:52:11;94127.53;;;16.18;100.00
50093;BME280;35974;47.752;10.290;2023-07-08T02:54:38;94139.00;;;16.11;100.00
50093;BME280;35974;47.752;10.290;2023-07-08T02:57:05;94137.31;;;16.05;100.00
50093;BME280;35974;47.752;10.290;2023-07-08T02:59:31;94136.50;;;15.93;100.00
50093;BME280;35974;47.752;10.290;2023-07-08T03:01:57;94143.94;;;16.32;100.00
50093;BME280;35974;47.752;10.290;2023-07-08T03:04:24;94150.63;;;16.10;100.00
50093;BME280;35974;47.752;10.290;2023-07-08T03:06:51;94166.78;;;16.26;100.00
50093;BME280;35974;47.752;10.290;2023-07-08T03:09:17;94174.03;;;16.19;100.00
50093;BME280;35974;47.752;10.290;2023-07-08T03:11:44;94156.50;;;15.89;100.00
50093;BME280;35974;47.752;10.290;2023-07-08T03:14:10;94147.75;;;15.77;100.00
50093;BME280;35974;47.752;10.290;2023-07-08T03:16:37;94188.78;;;15.72;100.00
50093;BME280;35974;47.752;10.290;2023-07-08T03:19:03;94163.31;;;15.66;100.00
50093;BME280;35974;47.752;10.290;2023-07-08T03:21:31;94158.31;;;15.77;100.00
50093;BME280;35974;47.752;10.290;2023-07-08T03:23:57;94170.69;;;16.00;100.00
50093;BME280;35974;47.752;10.290;2023-07-08T03:26:25;94171.84;;;15.92;100.00
50093;BME280;35974;47.752;10.290;2023-07-08T03:28:51;94173.00;;;15.96;100.00
50093;BME280;35974;47.752;10.290;2023-07-08T03:31:18;94175.97;;;15.88;100.00
50093;BME280;35974;47.752;10.290;2023-07-08T03:33:44;94157.72;;;15.98;100.00
50093;BME280;35974;47.752;10.290;2023-07-08T03:36:12;94161.06;;;16.05;100.00
50093;BME280;35974;47.752;10.290;2023-07-08T03:38:39;94169.41;;;16.38;100.00
50093;BME280;35974;47.752;10.290;2023-07-08T03:41:06;94162.91;;;15.93;100.00
50093;BME280;35974;47.752;10.290;2023-07-08T03:43:32;94158.38;;;15.70;100.00
50093;BME280;35974;47.752;10.290;2023-07-08T03:45:58;94167.94;;;15.95;100.00
50093;BME280;35974;47.752;10.290;2023-07-08T03:48:25;94164.16;;;16.02;100.00
50093;BME280;35974;47.752;10.290;2023-07-08T03:50:51;94159.00;;;16.07;100.00
50093;BME280;35974;47.752;10.290;2023-07-08T03:53:17;94159.13;;;15.89;100.00
50093;BME280;35974;47.752;10.290;2023-07-08T03:55:44;94151.28;;;15.82;100.00
50093;BME280;35974;47.752;10.290;2023-07-08T03:58:10;94157.94;;;15.73;100.00
50093;BME280;35974;47.752;10.290;2023-07-08T04:00:36;94167.22;;;15.75;100.00
50093;BME280;35974;47.752;10.290;2023-07-08T04:03:03;94158.97;;;15.72;100.00
50093;BME280;35974;47.752;10.290;2023-07-08T04:05:29;94147.31;;;15.80;100.00
50093;BME280;35974;47.752;10.290;2023-07-08T04:07:58;94144.53;;;15.74;100.00
50093;BME280;35974;47.752;10.290;2023-07-08T04:10:24;94146.84;;;15.83;100.00
50093;BME280;35974;47.752;10.290;2023-07-08T04:12:50;94146.59;;;15.96;100.00
50093;BME280;35974;47.752;10.290;2023-07-08T04:15:17;94152.56;;;15.80;100.00
50093;BME280;35974;47.752;10.290;2023-07-08T04:17:45;94152.56;;;15.80;100.00
50093;BME280;35974;47.752;10.290;2023-07-08T04:20:16;94151.38;;;15.75;100.00
50093;BME280;35974;47.752;10.290;2023-07-08T04:22:45;94157.63;;;15.93;100.00
50093;BME280;35974;47.752;10.290;2023-07-08T04:25:12;94157.63;;;15.93;100.00
50093;BME280;35974;47.752;10.290;2023-07-08T04:27:40;94159.69;;;15.91;100.00
50093;BME280;35974;47.752;10.290;2023-07-08T04:30:06;94149.13;;;15.91;100.00
50093;BME280;35974;47.752;10.290;2023-07-08T04:32:33;94148.91;;;16.04;100.00
50093;BME280;35974;47.752;10.290;2023-07-08T04:34:59;94146.38;;;16.09;100.00
50093;BME280;35974;47.752;10.290;2023-07-08T04:40:00;94141.88;;;16.22;100.00
50093;BME280;35974;47.752;10.290;2023-07-08T04:42:27;94139.34;;;16.27;100.00
50093;BME280;35974;47.752;10.290;2023-07-08T04:44:54;94144.69;;;16.56;100.00
50093;BME280;35974;47.752;10.290;2023-07-08T04:47:21;94147.06;;;16.69;98.93
50093;BME280;35974;47.752;10.290;2023-07-08T04:49:47;94142.81;;;16.68;99.90
50093;BME280;35974;47.752;10.290;2023-07-08T04:52:13;94138.09;;;16.70;100.00
50093;BME280;35974;47.752;10.290;2023-07-08T04:54:40;94144.13;;;16.82;100.00
50093;BME280;35974;47.752;10.290;2023-07-08T04:57:08;94152.19;;;16.88;100.00
50093;BME280;35974;47.752;10.290;2023-07-08T04:59:34;94160.88;;;17.00;99.98
50093;BME280;35974;47.752;10.290;2023-07-08T05:02:01;94155.69;;;17.05;99.88
50093;BME280;35974;47.752;10.290;2023-07-08T05:04:28;94149.50;;;17.45;97.51
50093;BME280;35974;47.752;10.290;2023-07-08T05:06:54;94153.09;;;17.56;95.37
50093;BME280;35974;47.752;10.290;2023-07-08T05:09:20;94162.88;;;17.55;96.31
50093;BME280;35974;47.752;10.290;2023-07-08T05:11:49;94165.69;;;17.83;95.45
50093;BME280;35974;47.752;10.290;2023-07-08T05:14:15;94109.72;;;17.23;96.58
50093;BME280;35974;47.752;10.290;2023-07-08T05:16:42;94172.16;;;17.41;98.05
50093;BME280;35974;47.752;10.290;2023-07-08T05:19:08;94175.88;;;17.40;98.32
50093;BME280;35974;47.752;10.290;2023-07-08T05:21:35;94182.28;;;17.44;97.10
50093;BME280;35974;47.752;10.290;2023-07-08T05:24:02;94177.63;;;17.51;96.87
50093;BME280;35974;47.752;10.290;2023-07-08T05:26:29;94177.72;;;17.56;96.94
50093;BME280;35974;47.752;10.290;2023-07-08T05:28:56;94187.91;;;17.65;97.34
50093;BME280;35974;47.752;10.290;2023-07-08T05:31:22;94179.75;;;18.17;92.10
50093;BME280;35974;47.752;10.290;2023-07-08T05:34:03;94175.81;;;18.20;91.15
50093;BME280;35974;47.752;10.290;2023-07-08T05:36:30;94180.50;;;18.35;91.83
50093;BME280;35974;47.752;10.290;2023-07-08T05:39:02;94184.69;;;18.30;92.35
50093;BME280;35974;47.752;10.290;2023-07-08T05:41:28;94183.59;;;18.26;93.43
50093;BME280;35974;47.752;10.290;2023-07-08T05:43:55;94184.69;;;18.30;93.52
50093;BME280;35974;47.752;10.290;2023-07-08T05:46:21;94189.50;;;18.34;92.85
50093;BME280;35974;47.752;10.290;2023-07-08T05:48:48;94195.94;;;18.38;92.38
50093;BME280;35974;47.752;10.290;2023-07-08T05:51:15;94187.50;;;18.41;92.20
50093;BME280;35974;47.752;10.290;2023-07-08T05:53:41;94197.31;;;18.45;91.29
50093;BME280;35974;47.752;10.290;2023-07-08T05:56:07;94198.75;;;18.53;90.74
50093;BME280;35974;47.752;10.290;2023-07-08T05:58:34;94201.00;;;18.61;90.73
50093;BME280;35974;47.752;10.290;2023-07-08T06:01:00;94199.81;;;18.74;90.00
50093;BME280;35974;47.752;10.290;2023-07-08T06:03:28;94199.81;;;18.91;89.31
50093;BME280;35974;47.752;10.290;2023-07-08T06:05:54;94210.22;;;19.25;86.53
50093;BME280;35974;47.752;10.290;2023-07-08T06:08:21;94201.22;;;19.26;86.54
50093;BME280;35974;47.752;10.290;2023-07-08T06:10:47;94195.81;;;19.70;83.08
50093;BME280;35974;47.752;10.290;2023-07-08T06:13:14;94208.16;;;19.82;80.70
50093;BME280;35974;47.752;10.290;2023-07-08T06:15:42;94210.66;;;19.66;82.51
50093;BME280;35974;47.752;10.290;2023-07-08T06:18:09;94216.03;;;20.04;79.26
50093;BME280;35974;47.752;10.290;2023-07-08T06:20:35;94218.31;;;19.90;79.02
50093;BME280;35974;47.752;10.290;2023-07-08T06:23:01;94216.81;;;20.04;79.73
50093;BME280;35974;47.752;10.290;2023-07-08T06:25:29;94216.59;;;20.11;81.25
50093;BME280;35974;47.752;10.290;2023-07-08T06:27:55;94211.44;;;19.94;82.39
50093;BME280;35974;47.752;10.290;2023-07-08T06:30:21;94221.63;;;20.07;80.91
50093;BME280;35974;47.752;10.290;2023-07-08T06:32:48;94223.25;;;20.08;82.27
50093;BME280;35974;47.752;10.290;2023-07-08T06:35:22;94223.25;;;19.76;84.82
50093;BME280;35974;47.752;10.290;2023-07-08T06:37:48;94224.69;;;19.89;84.83
50093;BME280;35974;47.752;10.290;2023-07-08T06:40:14;94228.06;;;20.11;81.14
50093;BME280;35974;47.752;10.290;2023-07-08T06:42:41;94223.25;;;20.08;79.94
50093;BME280;35974;47.752;10.290;2023-07-08T06:45:07;94227.41;;;19.99;81.12
50093;BME280;35974;47.752;10.290;2023-07-08T06:47:42;94224.31;;;20.12;81.44
50093;BME280;35974;47.752;10.290;2023-07-08T06:50:09;94233.41;;;20.59;76.50
50093;BME280;35974;47.752;10.290;2023-07-08T06:52:35;94230.56;;;20.71;74.09
50093;BME280;35974;47.752;10.290;2023-07-08T06:55:05;94231.50;;;20.55;74.63
50093;BME280;35974;47.752;10.290;2023-07-08T06:57:32;94238.91;;;20.42;75.75
50093;BME280;35974;47.752;10.290;2023-07-08T07:02:28;94231.63;;;20.65;74.77
50093;BME280;35974;47.752;10.290;2023-07-08T07:04:54;94227.81;;;20.56;76.06
50093;BME280;35974;47.752;10.290;2023-07-08T07:07:25;94224.19;;;20.67;76.25
50093;BME280;35974;47.752;10.290;2023-07-08T07:09:53;94229.50;;;20.67;76.32
50093;BME280;35974;47.752;10.290;2023-07-08T07:12:19;94231.38;;;20.72;76.32
50093;BME280;35974;47.752;10.290;2023-07-08T07:17:16;94242.34;;;20.85;78.09
50093;BME280;35974;47.752;10.290;2023-07-08T07:19:42;94239.66;;;20.80;79.02
50093;BME280;35974;47.752;10.290;2023-07-08T07:22:14;94244.56;;;21.04;78.35
50093;BME280;35974;47.752;10.290;2023-07-08T07:24:41;94241.84;;;20.99;79.35
50093;BME280;35974;47.752;10.290;2023-07-08T07:27:10;94240.28;;;20.98;79.10
50093;BME280;35974;47.752;10.290;2023-07-08T07:29:45;94235.47;;;20.95;79.93
50093;BME280;35974;47.752;10.290;2023-07-08T07:32:13;94234.44;;;21.01;80.15
50093;BME280;35974;47.752;10.290;2023-07-08T07:34:42;94241.97;;;21.30;80.52
50093;BME280;35974;47.752;10.290;2023-07-08T07:37:16;94237.25;;;21.47;80.40
50093;BME280;35974;47.752;10.290;2023-07-08T07:42:15;94229.59;;;22.48;71.89
50093;BME280;35974;47.752;10.290;2023-07-08T07:44:44;94233.56;;;22.61;68.68
50093;BME280;35974;47.752;10.290;2023-07-08T07:47:11;94232.50;;;22.67;70.38
50093;BME280;35974;47.752;10.290;2023-07-08T07:49:37;94228.78;;;22.58;69.87
50093;BME280;35974;47.752;10.290;2023-07-08T07:52:05;94226.59;;;22.81;66.73
50093;BME280;35974;47.752;10.290;2023-07-08T07:54:33;94226.53;;;23.01;61.97
50093;BME280;35974;47.752;10.290;2023-07-08T07:57:00;94238.84;;;22.97;65.17
50093;BME280;35974;47.752;10.290;2023-07-08T07:59:35;94235.34;;;22.97;68.45
50093;BME280;35974;47.752;10.290;2023-07-08T08:02:02;94242.50;;;23.22;68.90
50093;BME280;35974;47.752;10.290;2023-07-08T08:04:29;94248.28;;;23.39;68.07
50093;BME280;35974;47.752;10.290;2023-07-08T08:06:56;94246.63;;;23.49;66.29
50093;BME280;35974;47.752;10.290;2023-07-08T08:09:27;94247.25;;;23.80;64.64
50093;BME280;35974;47.752;10.290;2023-07-08T08:11:54;94246.16;;;23.86;56.88
50093;BME280;35974;47.752;10.290;2023-07-08T08:14:21;94252.06;;;23.83;51.45
50093;BME280;35974;47.752;10.290;2023-07-08T08:16:50;94249.16;;;23.74;55.75
50093;BME280;35974;47.752;10.290;2023-07-08T08:19:18;94243.72;;;23.95;59.20
50093;BME280;35974;47.752;10.290;2023-07-08T08:21:46;94246.97;;;23.87;59.09
50093;BME280;35974;47.752;10.290;2023-07-08T08:24:13;94251.66;;;24.05;59.67
50093;BME280;35974;47.752;10.290;2023-07-08T08:26:42;94239.31;;;24.09;58.19
50093;BME280;35974;47.752;10.290;2023-07-08T08:29:11;94250.72;;;23.86;55.35
50093;BME280;35974;47.752;10.290;2023-07-08T08:31:37;94246.97;;;23.82;54.01
50093;BME280;35974;47.752;10.290;2023-07-08T08:34:04;94247.63;;;23.63;54.44
50093;BME280;35974;47.752;10.290;2023-07-08T08:36:30;94196.16;;;23.47;52.97
50093;BME280;35974;47.752;10.290;2023-07-08T08:38:57;94250.31;;;23.58;54.83
50093;BME280;35974;47.752;10.290;2023-07-08T08:41:30;94246.44;;;23.80;54.29
50093;BME280;35974;47.752;10.290;2023-07-08T08:43:57;94244.59;;;23.85;54.19
50093;BME280;35974;47.752;10.290;2023-07-08T08:49:18;94252.00;;;24.28;53.86
50093;BME280;35974;47.752;10.290;2023-07-08T08:51:53;94247.47;;;24.58;50.00
50093;BME280;35974;47.752;10.290;2023-07-08T08:54:24;94244.72;;;25.16;44.48
50093;BME280;35974;47.752;10.290;2023-07-08T08:57:16;94250.97;;;25.07;43.15
50093;BME280;35974;47.752;10.290;2023-07-08T09:05:15;94253.38;;;25.08;47.76
50093;BME280;35974;47.752;10.290;2023-07-08T09:10:33;94268.31;;;25.14;47.08
50093;BME280;35974;47.752;10.290;2023-07-08T09:13:02;94269.44;;;25.08;46.50
50093;BME280;35974;47.752;10.290;2023-07-08T09:15:32;94281.41;;;24.92;46.35
50093;BME280;35974;47.752;10.290;2023-07-08T09:20:29;94262.75;;;25.35;45.28
50093;BME280;35974;47.752;10.290;2023-07-08T09:28:12;94261.72;;;25.31;45.96
50093;BME280;35974;47.752;10.290;2023-07-08T09:30:41;94264.44;;;25.26;43.14
50093;BME280;35974;47.752;10.290;2023-07-08T09:33:11;94264.16;;;25.27;45.33
50093;BME280;35974;47.752;10.290;2023-07-08T09:35:41;94268.88;;;25.11;44.97
50093;BME280;35974;47.752;10.290;2023-07-08T09:38:11;94272.75;;;25.00;46.18
50093;BME280;35974;47.752;10.290;2023-07-08T09:40:39;94274.22;;;25.11;45.30
50093;BME280;35974;47.752;10.290;2023-07-08T09:45:42;94273.09;;;25.17;46.30
50093;BME280;35974;47.752;10.290;2023-07-08T09:48:14;94277.09;;;24.96;47.16
50093;BME280;35974;47.752;10.290;2023-07-08T09:50:42;94279.22;;;24.94;46.11
50093;BME280;35974;47.752;10.290;2023-07-08T09:53:13;94272.88;;;24.90;46.54
50093;BME280;35974;47.752;10.290;2023-07-08T09:55:39;94269.56;;;24.98;46.52
50093;BME280;35974;47.752;10.290;2023-07-08T09:58:09;94274.34;;;25.01;46.42
50093;BME280;35974;47.752;10.290;2023-07-08T10:00:41;94274.44;;;24.91;45.49
50093;BME280;35974;47.752;10.290;2023-07-08T10:03:19;94271.25;;;24.89;45.72
50093;BME280;35974;47.752;10.290;2023-07-08T10:05:48;94277.41;;;25.13;47.99
50093;BME280;35974;47.752;10.290;2023-07-08T10:08:19;94273.75;;;25.33;46.77
50093;BME280;35974;47.752;10.290;2023-07-08T10:10:46;94272.19;;;25.51;42.34
50093;BME280;35974;47.752;10.290;2023-07-08T10:13:20;94277.84;;;25.69;44.22
50093;BME280;35974;47.752;10.290;2023-07-08T10:15:53;94275.50;;;25.43;45.99
50093;BME280;35974;47.752;10.290;2023-07-08T10:18:29;94270.81;;;25.73;44.67
50093;BME280;35974;47.752;10.290;2023-07-08T10:23:43;94277.66;;;26.03;45.14
50093;BME280;35974;47.752;10.290;2023-07-08T10:31:46;94279.88;;;26.15;44.16
50093;BME280;35974;47.752;10.290;2023-07-08T10:34:18;94279.06;;;26.34;43.17
50093;BME280;35974;47.752;10.290;2023-07-08T10:39:41;94274.72;;;26.71;43.17
50093;BME280;35974;47.752;10.290;2023-07-08T10:42:16;94278.91;;;26.44;42.33
50093;BME280;35974;47.752;10.290;2023-07-08T10:45:08;94275.41;;;26.43;41.72
50093;BME280;35974;47.752;10.290;2023-07-08T10:47:47;94284.38;;;26.39;43.66
50093;BME280;35974;47.752;10.290;2023-07-08T11:01:25;94276.78;;;27.34;40.82
50093;BME280;35974;47.752;10.290;2023-07-08T11:03:59;94274.59;;;27.36;42.39
50093;BME280;35974;47.752;10.290;2023-07-08T11:06:34;94266.81;;;27.21;42.77
50093;BME280;35974;47.752;10.290;2023-07-08T11:11:43;94272.03;;;26.38;41.15
50093;BME280;35974;47.752;10.290;2023-07-08T11:14:16;94276.38;;;26.34;44.19
50093;BME280;35974;47.752;10.290;2023-07-08T11:17:00;94282.44;;;26.58;44.97
50093;BME280;35974;47.752;10.290;2023-07-08T11:19:32;94277.66;;;26.55;43.86
50093;BME280;35974;47.752;10.290;2023-07-08T11:22:02;94267.78;;;26.83;43.32
50093;BME280;35974;47.752;10.290;2023-07-08T11:27:05;94270.38;;;27.02;41.71
50093;BME280;35974;47.752;10.290;2023-07-08T11:32:02;94273.72;;;26.66;43.22
50093;BME280;35974;47.752;10.290;2023-07-08T11:34:29;94271.63;;;26.30;43.54
50093;BME280;35974;47.752;10.290;2023-07-08T11:36:56;94272.03;;;26.38;43.10
50093;BME280;35974;47.752;10.290;2023-07-08T11:39:33;94264.53;;;26.21;44.42
50093;BME280;35974;47.752;10.290;2023-07-08T11:44:51;94269.31;;;26.05;46.21
50093;BME280;35974;47.752;10.290;2023-07-08T11:47:20;94273.78;;;26.28;48.30
50093;BME280;35974;47.752;10.290;2023-07-08T11:49:48;94269.06;;;26.53;46.79
50093;BME280;35974;47.752;10.290;2023-07-08T11:52:17;94258.19;;;26.63;47.07
50093;BME280;35974;47.752;10.290;2023-07-08T11:54:45;94258.78;;;26.60;45.65
50093;BME280;35974;47.752;10.290;2023-07-08T11:57:17;94261.41;;;26.65;45.24
50093;BME280;35974;47.752;10.290;2023-07-08T11:59:44;94256.22;;;26.69;44.94
50093;BME280;35974;47.752;10.290;2023-07-08T12:02:16;94257.81;;;26.84;46.00
50093;BME280;35974;47.752;10.290;2023-07-08T12:07:42;94262.13;;;26.52;78.09
50093;BME280;35974;47.752;10.290;2023-07-08T12:10:11;94260.19;;;26.06;62.90
50093;BME280;35974;47.752;10.290;2023-07-08T12:12:41;94260.19;;;26.06;50.68
50093;BME280;35974;47.752;10.290;2023-07-08T12:15:23;94259.59;;;26.09;53.66
50093;BME280;35974;47.752;10.290;2023-07-08T12:17:56;94264.88;;;26.14;46.62
50093;BME280;35974;47.752;10.290;2023-07-08T12:20:26;94269.00;;;26.25;48.49
50093;BME280;35974;47.752;10.290;2023-07-08T12:22:54;94270.41;;;26.37;44.63
50093;BME280;35974;47.752;10.290;2023-07-08T12:25:22;94260.22;;;26.72;46.96
50093;BME280;35974;47.752;10.290;2023-07-08T12:27:49;94263.63;;;26.91;46.69
50093;BME280;35974;47.752;10.290;2023-07-08T12:30:17;94256.66;;;27.18;44.29
50093;BME280;35974;47.752;10.290;2023-07-08T12:32:44;94255.69;;;27.42;43.67
50093;BME280;35974;47.752;10.290;2023-07-08T12:35:21;94260.66;;;27.34;45.79
50093;BME280;35974;47.752;10.290;2023-07-08T12:37:48;94257.00;;;27.81;43.33
50093;BME280;35974;47.752;10.290;2023-07-08T12:40:17;94257.28;;;27.43;41.35
50093;BME280;35974;47.752;10.290;2023-07-08T12:42:44;94258.09;;;27.80;42.46
50093;BME280;35974;47.752;10.290;2023-07-08T12:45:15;94259.16;;;27.92;43.68
50093;BME280;35974;47.752;10.290;2023-07-08T12:47:43;94257.69;;;28.23;40.76
50093;BME280;35974;47.752;10.290;2023-07-08T12:50:10;94255.13;;;28.18;38.96
50093;BME280;35974;47.752;10.290;2023-07-08T12:52:36;94252.78;;;28.02;41.10
50093;BME280;35974;47.752;10.290;2023-07-08T12:55:03;94255.94;;;28.04;39.26
50093;BME280;35974;47.752;10.290;2023-07-08T12:57:30;94260.34;;;28.00;39.09
50093;BME280;35974;47.752;10.290;2023-07-08T12:59:56;94258.53;;;28.09;38.70
50093;BME280;35974;47.752;10.290;2023-07-08T13:02:23;94266.75;;;27.76;38.70
50093;BME280;35974;47.752;10.290;2023-07-08T13:04:55;94268.94;;;27.88;40.20
50093;BME280;35974;47.752;10.290;2023-07-08T13:07:29;94264.38;;;27.75;40.76
50093;BME280;35974;47.752;10.290;2023-07-08T13:09:58;94266.63;;;27.59;37.72
50093;BME280;35974;47.752;10.290;2023-07-08T13:12:25;94269.19;;;27.50;39.44
50093;BME280;35974;47.752;10.290;2023-07-08T13:14:52;94270.81;;;27.88;40.08
50093;BME280;35974;47.752;10.290;2023-07-08T13:17:20;94267.16;;;27.84;39.81
50093;BME280;35974;47.752;10.290;2023-07-08T13:19:47;94270.34;;;27.86;42.06
50093;BME280;35974;47.752;10.290;2023-07-08T13:22:18;94272.72;;;28.01;38.28
50093;BME280;35974;47.752;10.290;2023-07-08T13:24:58;94273.09;;;28.54;38.08
50093;BME280;35974;47.752;10.290;2023-07-08T13:27:25;94274.44;;;28.20;40.92
50093;BME280;35974;47.752;10.290;2023-07-08T13:29:52;94265.50;;;28.10;37.85
50093;BME280;35974;47.752;10.290;2023-07-08T13:32:18;94274.34;;;27.74;39.09
50093;BME280;35974;47.752;10.290;2023-07-08T13:34:48;94274.16;;;27.57;41.34
50093;BME280;35974;47.752;10.290;2023-07-08T13:37:14;94274.34;;;27.74;43.25
50093;BME280;35974;47.752;10.290;2023-07-08T13:39:44;94269.13;;;27.92;42.59
50093;BME280;35974;47.752;10.290;2023-07-08T13:42:11;94269.53;;;28.22;42.15
50093;BME280;35974;47.752;10.290;2023-07-08T13:44:42;94268.91;;;28.02;40.07
50093;BME280;35974;47.752;10.290;2023-07-08T13:47:20;94268.06;;;28.16;39.72
50093;BME280;35974;47.752;10.290;2023-07-08T13:49:47;94263.09;;;28.54;39.39
50093;BME280;35974;47.752;10.290;2023-07-08T13:52:16;94268.19;;;28.78;39.21
50093;BME280;35974;47.752;10.290;2023-07-08T13:57:18;94255.94;;;28.72;39.42
50093;BME280;35974;47.752;10.290;2023-07-08T13:59:45;94253.75;;;29.06;39.40
50093;BME280;35974;47.752;10.290;2023-07-08T14:02:16;94253.75;;;29.14;35.60
50093;BME280;35974;47.752;10.290;2023-07-08T14:04:42;94252.66;;;28.53;35.89
50093;BME280;35974;47.752;10.290;2023-07-08T14:07:16;94250.97;;;28.57;37.34